KSSF/SSF METAR and TAF weather

Enter ICAO airport designator
Station Type Date Time Source
KSSF METAR 2021/05/14 11:53 UTC NOAA

KSSF 141153Z 00000KT 10SM CLR 17/15 A3017 RMK AO2 SLP210 T01670150 10194 20156 55000


Station Type Date Time Source
KSSF Decoded METAR 2021/05/14 11:53 UTC NOAA

SAN ANTONIO STINSON MUNI, TX, United States (KSSF) 29-20N 098-28W 176M
May 14, 2021 - 07:53 AM EDT / 2021.05.14 1153 UTC
Wind: Calm:0
Visibility: 10 mile(s):0
Sky conditions: clear
Temperature: 62.1 F (16.7 C)
Dew Point: 59.0 F (15.0 C)
Relative Humidity: 89%
Pressure (altimeter): 30.17 in. Hg (1021 hPa)
Pressure tendency: 0.00 inches (0.0 hPa) lower than three hours ago
ob: KSSF 141153Z 00000KT 10SM CLR 17/15 A3017 RMK AO2 SLP210 T01670150 10194 20156 55000
cycle: 12

Station Type Date Time Source
KSSF TAF 2021/05/14 12:30 UTC NOAA

TAF KSSF 141127Z 1412/1512 05003KT P6SM SCT040 BKN250
FM141800 13007KT P6SM BKN050
FM150100 13010KT P6SM BKN150
FM150500 16010KT P6SM BKN020

Example: see airport list